Lena-s. — V2EC7 — position and weather

sailwx.info

Track history (hours):
 
Tides and Currents Weather Stations Pressure Air Temp Water Temp Dewpoint Dewpoint Depression Visibility Wind Speed Wind Dir Waves Ship Positions

Lena-s.

Last reported at 2017-Jul-22 14:30 UTC. Time now 2017-Jul-22 16:34 UTC.
Position S 37°49' E 144°55'.

Length 261 m; draft 11.2 m.

Type: Ship (hazmat cat D). MMSI: 305386000.

Date/timePositionNaut miles runAvg speedWind from/ knotsBaromVisibWave heightAir tempDewpointWater temp
2017-Jul-22 14:30S 37°49' E 144°55'0 0.0
2017-Jul-22 13:30S 37°49' E 144°55'0 0.0
2017-Jul-21 20:45S 37°49' E 144°55'0 1.3
2017-Jul-21 20:29S 37°49' E 144°55'4 6.0
2017-Jul-21 19:50S 37°53' E 144°56'515.1
2017-Jul-21 19:29S 37°58' E 144°55'47513.4
2017-Jul-20 08:03S 33°03' E 152°32'119.5
2017-Jul-20 07:59S 33°02' E 152°32'1020.2
2017-Jul-20 07:30S 32°53' E 152°37'1020.1
2017-Jul-20 07:00S 32°44' E 152°42'1020.4
2017-Jul-20 06:30S 32°35' E 152°47'  
Track history (hours):
 
Tides and Currents Weather Stations Pressure Air Temp Water Temp Dewpoint Dewpoint Depression Visibility Wind Speed Wind Dir Waves Ship Positions

Lena-s.

Last reported at 2017-Jul-22 14:30 UTC. Time now 2017-Jul-22 16:34 UTC.
Position S 37°49' E 144°55'.

Length 261 m; draft 11.2 m.

Type: Ship (hazmat cat D). MMSI: 305386000.

Date/timePositionNaut miles runAvg speedWind from/ knotsBaromVisibWave heightAir tempDewpointWater temp
2017-Jul-22 14:30S 37°49' E 144°55'0 0.0
2017-Jul-22 13:30S 37°49' E 144°55'0 0.0
2017-Jul-21 20:45S 37°49' E 144°55'0 1.3
2017-Jul-21 20:29S 37°49' E 144°55'4 6.0
2017-Jul-21 19:50S 37°53' E 144°56'515.1
2017-Jul-21 19:29S 37°58' E 144°55'47513.4
2017-Jul-20 08:03S 33°03' E 152°32'119.5
2017-Jul-20 07:59S 33°02' E 152°32'1020.2
2017-Jul-20 07:30S 32°53' E 152°37'1020.1
2017-Jul-20 07:00S 32°44' E 152°42'1020.4
2017-Jul-20 06:30S 32°35' E 152°47'  

Dump ship's entire track history